createdAt,value
2023-03-27T00:01:16.899Z,7.00
2023-03-27T00:03:43.562Z,6.85
2023-03-27T00:06:16.940Z,6.81
2023-03-27T00:08:44.754Z,6.89
2023-03-27T00:11:11.760Z,6.88
2023-03-27T00:13:49.502Z,6.93
2023-03-27T00:16:18.944Z,6.92
2023-03-27T00:18:45.844Z,6.85
2023-03-27T00:21:12.570Z,6.86
2023-03-27T00:23:38.975Z,6.98
2023-03-27T00:26:05.611Z,6.84
2023-03-27T00:28:32.347Z,6.92
2023-03-27T00:30:59.124Z,6.98
2023-03-27T00:33:26.023Z,6.94
2023-03-27T00:35:53.019Z,6.80
2023-03-27T00:38:20.852Z,6.71
2023-03-27T00:40:48.117Z,6.76
2023-03-27T00:43:28.622Z,6.75
2023-03-27T00:45:59.054Z,6.65
2023-03-27T00:48:25.975Z,6.67
2023-03-27T00:50:53.407Z,6.59
2023-03-27T00:53:26.430Z,6.57
2023-03-27T00:55:56.351Z,6.71
2023-03-27T00:58:27.671Z,6.48
2023-03-27T01:00:55.816Z,6.53
2023-03-27T01:03:25.395Z,6.56
2023-03-27T01:05:53.210Z,6.57
2023-03-27T01:08:20.393Z,6.63
2023-03-27T01:11:05.587Z,6.60
2023-03-27T01:13:45.884Z,6.42
2023-03-27T01:16:22.869Z,6.50
2023-03-27T01:19:00.344Z,6.52
2023-03-27T01:21:59.702Z,6.45
2023-03-27T01:24:29.110Z,6.40
2023-03-27T01:27:01.501Z,6.42
2023-03-27T01:29:46.296Z,6.45
2023-03-27T01:32:43.796Z,6.26
2023-03-27T01:35:40.841Z,6.22
2023-03-27T01:38:25.807Z,6.18
2023-03-27T01:41:05.752Z,6.12
2023-03-27T01:43:50.500Z,6.17
2023-03-27T01:46:31.606Z,6.26
2023-03-27T01:49:01.310Z,6.25
2023-03-27T01:51:52.489Z,6.16
2023-03-27T01:54:27.559Z,6.12
2023-03-27T01:57:02.509Z,6.09
2023-03-27T01:59:31.481Z,6.02
2023-03-27T02:02:01.659Z,5.91
2023-03-27T02:04:33.599Z,5.98
2023-03-27T02:07:03.348Z,5.98
2023-03-27T02:09:35.736Z,5.94
2023-03-27T02:12:27.955Z,5.91
2023-03-27T02:14:57.589Z,5.94
2023-03-27T02:17:48.252Z,5.89
2023-03-27T02:20:16.308Z,5.84
2023-03-27T02:22:43.800Z,5.93
2023-03-27T02:25:33.964Z,5.94
2023-03-27T02:28:09.534Z,5.96
2023-03-27T02:31:05.351Z,5.80
2023-03-27T02:33:44.982Z,5.77
2023-03-27T02:36:34.970Z,5.90
2023-03-27T02:39:15.925Z,5.93
2023-03-27T02:41:54.543Z,5.77
2023-03-27T02:44:29.714Z,5.89
2023-03-27T02:47:18.958Z,5.76
2023-03-27T02:49:59.748Z,5.87
2023-03-27T02:52:43.920Z,5.91
2023-03-27T02:55:35.174Z,5.84
2023-03-27T02:58:14.517Z,5.64
2023-03-27T03:00:48.638Z,5.39
2023-03-27T03:03:30.419Z,5.33
2023-03-27T03:05:57.574Z,5.28
2023-03-27T03:08:24.764Z,5.34
2023-03-27T03:10:51.196Z,5.39
2023-03-27T03:13:17.951Z,5.35
2023-03-27T03:15:45.992Z,5.35
2023-03-27T03:18:12.991Z,5.41
2023-03-27T03:20:39.730Z,5.39
2023-03-27T03:23:06.780Z,5.31
2023-03-27T03:25:33.193Z,5.14
2023-03-27T03:27:59.625Z,5.14
2023-03-27T03:30:30.275Z,4.93
2023-03-27T03:32:57.567Z,4.66
2023-03-27T03:35:24.803Z,4.81
2023-03-27T03:37:52.672Z,4.75
2023-03-27T03:40:19.898Z,4.76
2023-03-27T03:42:47.893Z,4.66
2023-03-27T03:45:14.722Z,4.73
2023-03-27T03:47:42.390Z,4.79
2023-03-27T03:50:09.424Z,4.44
2023-03-27T03:52:36.128Z,4.55
2023-03-27T03:55:04.625Z,4.49
2023-03-27T03:57:31.251Z,4.44
2023-03-27T03:59:58.372Z,4.49
2023-03-27T04:02:28.697Z,4.27
2023-03-27T04:04:56.784Z,4.23
2023-03-27T04:07:23.973Z,4.34
2023-03-27T04:09:51.166Z,4.23
2023-03-27T04:12:18.079Z,4.18
2023-03-27T04:14:44.879Z,3.85
2023-03-27T04:17:11.441Z,3.96
2023-03-27T04:19:37.859Z,4.06
2023-03-27T04:22:05.540Z,4.11
2023-03-27T04:24:31.946Z,4.12
2023-03-27T04:26:58.900Z,4.05
2023-03-27T04:29:25.822Z,3.89
2023-03-27T04:31:52.376Z,3.95
2023-03-27T04:34:20.460Z,4.00
2023-03-27T04:36:47.327Z,4.12
2023-03-27T04:39:17.153Z,4.15
2023-03-27T04:41:49.190Z,4.25
2023-03-27T04:44:19.814Z,4.18
2023-03-27T04:46:50.291Z,4.22
2023-03-27T04:49:20.390Z,4.26
2023-03-27T04:51:47.047Z,4.24
2023-03-27T04:54:13.704Z,4.24
2023-03-27T04:56:40.716Z,4.25
2023-03-27T04:59:07.197Z,4.22
2023-03-27T05:01:33.945Z,4.24
2023-03-27T05:04:02.360Z,4.20
2023-03-27T05:06:28.984Z,4.15
2023-03-27T05:08:55.511Z,4.18
2023-03-27T05:11:21.953Z,4.19
2023-03-27T05:13:48.360Z,4.09
2023-03-27T05:16:17.547Z,4.19
2023-03-27T05:18:45.208Z,4.15
2023-03-27T05:21:12.117Z,4.21
2023-03-27T05:23:38.949Z,4.19
2023-03-27T05:26:05.370Z,4.17
2023-03-27T05:28:31.816Z,4.15
2023-03-27T05:31:00.580Z,4.18
2023-03-27T05:33:27.183Z,4.13
2023-03-27T05:35:53.662Z,4.16
2023-03-27T05:38:20.286Z,4.15
2023-03-27T05:40:46.760Z,4.09
2023-03-27T05:43:13.146Z,3.90
2023-03-27T05:45:39.521Z,3.94
2023-03-27T05:48:06.451Z,3.99
2023-03-27T05:50:34.828Z,4.08
2023-03-27T05:53:03.928Z,4.05
2023-03-27T05:55:31.009Z,4.08
2023-03-27T05:57:57.429Z,4.06
2023-03-27T06:00:26.128Z,4.12
2023-03-27T06:03:00.474Z,4.16
2023-03-27T06:05:29.209Z,4.16
2023-03-27T06:07:58.992Z,4.15
2023-03-27T06:10:29.788Z,4.10
2023-03-27T06:13:04.875Z,4.05
2023-03-27T06:15:31.571Z,4.02
2023-03-27T06:17:59.537Z,4.07
2023-03-27T06:20:26.159Z,4.00
2023-03-27T06:22:55.654Z,4.05
2023-03-27T06:25:25.941Z,4.07
2023-03-27T06:27:53.640Z,3.85
2023-03-27T06:30:22.186Z,4.08
2023-03-27T06:32:51.182Z,4.28
2023-03-27T06:35:18.680Z,4.37
2023-03-27T06:37:48.898Z,4.57
2023-03-27T06:40:24.222Z,4.66
2023-03-27T06:43:01.147Z,4.89
2023-03-27T06:45:33.508Z,4.99
2023-03-27T06:48:18.079Z,5.10
2023-03-27T06:50:49.194Z,5.25
2023-03-27T06:53:26.679Z,5.33
2023-03-27T06:55:55.354Z,5.35
2023-03-27T06:58:22.558Z,5.35
2023-03-27T07:00:50.610Z,5.24
2023-03-27T07:03:18.340Z,5.28
2023-03-27T07:05:45.500Z,5.33
2023-03-27T07:10:50.618Z,5.43
2023-03-27T07:13:23.057Z,5.59
2023-03-27T07:15:49.495Z,5.88
2023-03-27T07:18:16.331Z,6.01
2023-03-27T07:20:44.333Z,6.16
2023-03-27T07:23:11.512Z,6.37
2023-03-27T07:25:38.063Z,6.50
2023-03-27T07:28:06.574Z,5.90
2023-03-27T07:30:34.053Z,6.48
2023-03-27T07:33:00.565Z,6.46
2023-03-27T07:35:27.219Z,6.21
2023-03-27T07:37:54.368Z,5.98
2023-03-27T07:40:29.568Z,5.85
2023-03-27T07:43:07.070Z,6.05
2023-03-27T07:45:34.699Z,5.74
2023-03-27T07:48:05.719Z,5.99
2023-03-27T07:50:33.342Z,5.80
2023-03-27T07:52:59.909Z,6.11
2023-03-27T07:55:29.549Z,5.95
2023-03-27T07:58:01.840Z,6.24
2023-03-27T08:00:31.054Z,6.45
2023-03-27T08:03:07.429Z,6.86
2023-03-27T08:05:34.605Z,6.67
2023-03-27T08:08:01.302Z,7.05
2023-03-27T08:10:27.821Z,7.22
2023-03-27T08:12:54.223Z,7.19
2023-03-27T08:15:25.111Z,7.07
2023-03-27T08:17:54.638Z,6.92
2023-03-27T08:20:23.045Z,6.93
2023-03-27T08:22:52.773Z,6.82
2023-03-27T08:25:22.167Z,6.60
2023-03-27T08:27:48.868Z,6.17
2023-03-27T08:30:17.011Z,6.24
2023-03-27T08:32:43.915Z,6.35
2023-03-27T08:35:10.629Z,6.33
2023-03-27T08:37:38.361Z,6.31
2023-03-27T08:40:13.147Z,6.37
2023-03-27T08:42:42.257Z,6.56
2023-03-27T08:45:21.074Z,7.01
2023-03-27T08:47:53.487Z,7.03
2023-03-27T08:50:36.534Z,7.25
2023-03-27T08:53:04.488Z,7.85
2023-03-27T08:55:40.357Z,7.71
2023-03-27T08:58:17.026Z,7.68
2023-03-27T09:00:44.019Z,8.18
2023-03-27T09:03:27.589Z,8.29
2023-03-27T09:05:58.925Z,8.08
2023-03-27T09:08:38.430Z,8.03
2023-03-27T09:11:31.148Z,7.63
2023-03-27T09:13:57.675Z,7.31
2023-03-27T09:16:41.017Z,7.22
2023-03-27T09:19:31.846Z,7.57
2023-03-27T09:22:07.952Z,8.12
2023-03-27T09:24:42.129Z,7.88
2023-03-27T09:27:22.369Z,8.13
2023-03-27T09:30:05.637Z,7.90
2023-03-27T09:32:33.512Z,8.38
2023-03-27T09:35:00.910Z,8.74
2023-03-27T09:37:27.487Z,8.66
2023-03-27T09:39:55.112Z,8.56
2023-03-27T09:42:28.811Z,8.49
2023-03-27T09:44:57.302Z,8.45
2023-03-27T09:47:32.820Z,8.67
2023-03-27T09:50:18.445Z,8.69
2023-03-27T09:52:44.876Z,8.41
2023-03-27T09:55:25.040Z,8.31
2023-03-27T09:57:58.506Z,8.10
2023-03-27T10:00:29.156Z,7.87
2023-03-27T10:03:07.875Z,7.98
2023-03-27T10:05:35.384Z,7.97
2023-03-27T10:08:02.359Z,8.20
2023-03-27T10:10:32.431Z,8.71
2023-03-27T10:13:00.258Z,8.65
2023-03-27T10:15:27.021Z,8.50
2023-03-27T10:17:53.560Z,8.50
2023-03-27T10:20:21.309Z,8.57
2023-03-27T10:22:55.663Z,8.88
2023-03-27T10:25:29.575Z,8.84
2023-03-27T10:28:18.764Z,9.01
2023-03-27T10:30:45.489Z,9.41
2023-03-27T10:33:11.942Z,9.29
2023-03-27T10:35:43.395Z,9.08
2023-03-27T10:38:15.114Z,9.30
2023-03-27T10:40:44.255Z,9.30
2023-03-27T10:43:13.013Z,9.51
2023-03-27T10:45:46.350Z,9.75
2023-03-27T10:48:21.084Z,9.81
2023-03-27T10:50:53.482Z,10.11
2023-03-27T10:53:49.147Z,10.26
2023-03-27T10:56:43.950Z,10.02
2023-03-27T11:02:43.311Z,9.72
2023-03-27T11:03:47.562Z,9.97
2023-03-27T11:05:17.264Z,9.46
2023-03-27T11:08:06.176Z,9.40
2023-03-27T11:10:46.149Z,9.33
2023-03-27T11:13:33.556Z,8.99
2023-03-27T11:16:12.014Z,9.23
2023-03-27T11:18:47.109Z,9.72
2023-03-27T11:21:17.568Z,9.55
2023-03-27T11:23:52.030Z,9.60
2023-03-27T11:26:19.736Z,9.41
2023-03-27T11:28:54.586Z,8.92
2023-03-27T11:31:34.175Z,8.58
2023-03-27T11:34:15.436Z,8.31
2023-03-27T11:36:58.129Z,8.16
2023-03-27T11:39:42.158Z,7.81
2023-03-27T11:42:14.733Z,8.19
2023-03-27T11:44:41.901Z,7.84
2023-03-27T11:47:56.657Z,8.05
2023-03-27T11:51:22.010Z,8.33
2023-03-27T11:53:53.602Z,8.01
2023-03-27T11:56:35.284Z,8.20
2023-03-27T11:59:27.496Z,8.53
2023-03-27T12:02:24.190Z,8.85
2023-03-27T12:04:56.970Z,9.31
2023-03-27T12:08:01.199Z,8.94
2023-03-27T12:10:33.062Z,8.93
2023-03-27T12:13:28.822Z,8.92
2023-03-27T12:16:10.932Z,9.09
2023-03-27T12:19:04.029Z,8.99
2023-03-27T12:21:46.402Z,8.85
2023-03-27T12:24:12.737Z,8.99
2023-03-27T12:27:05.265Z,8.88
2023-03-27T12:30:02.606Z,8.94
2023-03-27T12:32:44.735Z,8.99
2023-03-27T12:35:14.861Z,9.00
2023-03-27T12:37:58.424Z,9.14
2023-03-27T12:40:41.012Z,9.31
2023-03-27T12:43:24.423Z,8.91
2023-03-27T12:46:23.736Z,8.33
2023-03-27T12:48:58.556Z,7.88
2023-03-27T12:51:43.569Z,7.51
2023-03-27T12:54:21.844Z,7.63
2023-03-27T12:56:51.787Z,7.49
2023-03-27T12:59:27.173Z,7.14
2023-03-27T13:02:08.893Z,6.66
2023-03-27T13:05:00.094Z,7.13
2023-03-27T13:07:37.296Z,7.16
2023-03-27T13:10:21.809Z,7.58
2023-03-27T13:12:54.223Z,7.96
2023-03-27T13:15:29.604Z,8.22
2023-03-27T13:18:26.984Z,8.41
2023-03-27T13:20:59.868Z,8.60
2023-03-27T13:23:41.603Z,8.80
2023-03-27T13:26:45.553Z,8.83
2023-03-27T13:29:35.800Z,9.18
2023-03-27T13:32:30.818Z,9.21
2023-03-27T13:35:23.497Z,9.23
2023-03-27T13:37:49.899Z,8.87
2023-03-27T13:40:26.519Z,8.68
2023-03-27T13:43:11.241Z,8.81
2023-03-27T13:45:52.451Z,8.85
2023-03-27T13:49:04.600Z,9.19
2023-03-27T13:51:50.256Z,9.20
2023-03-27T13:54:38.026Z,9.48
2023-03-27T13:57:17.187Z,9.51
2023-03-27T14:00:18.125Z,9.41
2023-03-27T14:03:01.288Z,9.64
2023-03-27T14:05:49.498Z,9.55
2023-03-27T14:08:27.459Z,9.34
2023-03-27T14:11:15.905Z,9.25
2023-03-27T14:13:53.359Z,9.09
2023-03-27T14:16:45.226Z,8.97
2023-03-27T14:19:45.890Z,9.17
2023-03-27T14:22:26.384Z,9.14
2023-03-27T14:24:57.685Z,9.12
2023-03-27T14:27:24.384Z,9.22
2023-03-27T14:30:18.504Z,9.13
2023-03-27T14:32:45.088Z,9.03
2023-03-27T14:35:33.394Z,9.11
2023-03-27T14:38:03.528Z,9.09
2023-03-27T14:40:36.667Z,9.09
2023-03-27T14:43:06.201Z,8.93
2023-03-27T14:45:37.680Z,8.92
2023-03-27T14:48:06.200Z,8.86
2023-03-27T14:50:34.456Z,8.82
2023-03-27T14:53:02.865Z,8.85
2023-03-27T14:55:34.363Z,8.73
2023-03-27T14:58:10.935Z,8.44
2023-03-27T15:00:39.396Z,8.22
2023-03-27T15:03:19.025Z,7.91
2023-03-27T15:06:13.367Z,7.71
2023-03-27T15:08:41.689Z,7.68
2023-03-27T15:11:15.613Z,7.36
2023-03-27T15:13:42.161Z,7.24
2023-03-27T15:16:09.810Z,7.26
2023-03-27T15:18:45.349Z,7.46
2023-03-27T15:21:20.913Z,7.41
2023-03-27T15:24:05.678Z,7.42
2023-03-27T15:26:34.907Z,7.57
2023-03-27T15:29:08.094Z,7.82
2023-03-27T15:31:35.545Z,7.81
2023-03-27T15:34:08.284Z,7.88
2023-03-27T15:36:37.411Z,8.27
2023-03-27T15:39:06.568Z,8.52
2023-03-27T15:41:33.084Z,8.74
2023-03-27T15:44:12.576Z,8.69
2023-03-27T15:46:55.301Z,8.71
2023-03-27T15:49:28.457Z,8.88
2023-03-27T15:51:56.716Z,9.06
2023-03-27T15:54:29.137Z,8.95
2023-03-27T15:57:09.294Z,8.88
2023-03-27T15:59:52.158Z,8.87
2023-03-27T16:02:20.543Z,8.93
2023-03-27T16:04:56.122Z,9.01
2023-03-27T16:07:42.217Z,8.84
2023-03-27T16:10:09.739Z,8.80
2023-03-27T16:12:49.624Z,8.79
2023-03-27T16:15:37.402Z,8.70
2023-03-27T16:18:23.430Z,8.69
2023-03-27T16:20:50.033Z,8.52
2023-03-27T16:23:16.526Z,8.43
2023-03-27T16:25:43.096Z,8.21
2023-03-27T16:28:09.883Z,8.13
2023-03-27T16:30:41.974Z,8.02
2023-03-27T16:33:16.988Z,8.05
2023-03-27T16:35:44.140Z,7.74
2023-03-27T16:38:10.686Z,7.78
2023-03-27T16:40:37.115Z,7.86
2023-03-27T16:43:03.585Z,7.84
2023-03-27T16:45:30.185Z,7.73
2023-03-27T16:47:57.085Z,7.80
2023-03-27T16:50:25.452Z,7.79
2023-03-27T16:52:52.463Z,7.67
2023-03-27T16:55:19.531Z,7.63
2023-03-27T16:57:48.710Z,7.55
2023-03-27T17:00:16.844Z,7.44
2023-03-27T17:02:44.370Z,7.49
2023-03-27T17:05:11.280Z,7.53
2023-03-27T17:07:37.830Z,7.50
2023-03-27T17:10:05.217Z,7.52
2023-03-27T17:12:32.204Z,7.40
2023-03-27T17:14:58.664Z,7.35
2023-03-27T17:17:27.291Z,7.30
2023-03-27T17:19:54.089Z,7.29
2023-03-27T17:22:20.622Z,7.10
2023-03-27T17:24:56.679Z,7.07
2023-03-27T17:27:25.703Z,7.04
2023-03-27T17:29:52.191Z,6.89
2023-03-27T17:32:18.613Z,6.95
2023-03-27T17:34:45.051Z,6.78
2023-03-27T17:37:12.433Z,6.73
2023-03-27T17:39:38.985Z,6.67
2023-03-27T17:42:06.509Z,6.64
2023-03-27T17:44:32.917Z,6.60
2023-03-27T17:47:00.186Z,6.55
2023-03-27T17:49:28.137Z,6.56
2023-03-27T17:51:54.542Z,6.54
2023-03-27T17:54:20.929Z,6.54
2023-03-27T17:56:47.386Z,6.49
2023-03-27T17:59:14.012Z,6.49
2023-03-27T18:01:40.585Z,6.43
2023-03-27T18:04:07.086Z,6.43
2023-03-27T18:06:33.702Z,6.41
2023-03-27T18:09:00.210Z,6.32
2023-03-27T18:11:26.623Z,6.30
2023-03-27T18:13:53.473Z,6.34
2023-03-27T18:16:21.824Z,6.25
2023-03-27T18:18:48.538Z,6.19
2023-03-27T18:21:16.400Z,6.18
2023-03-27T18:23:45.803Z,6.16
2023-03-27T18:26:13.142Z,6.05
2023-03-27T18:28:39.730Z,6.03
2023-03-27T18:31:08.416Z,6.02
2023-03-27T18:33:35.271Z,6.02
2023-03-27T18:36:02.279Z,6.03
2023-03-27T18:38:29.078Z,6.00
2023-03-27T18:40:56.852Z,6.01
2023-03-27T18:43:23.988Z,5.96
2023-03-27T18:45:58.928Z,6.01
2023-03-27T18:48:26.724Z,5.95
2023-03-27T18:50:54.898Z,5.94
2023-03-27T18:53:21.628Z,5.88
2023-03-27T18:55:52.075Z,5.74
2023-03-27T18:58:19.320Z,5.77
2023-03-27T19:00:46.014Z,5.73
2023-03-27T19:03:15.576Z,5.70
2023-03-27T19:05:42.106Z,5.72
2023-03-27T19:08:08.566Z,5.69
2023-03-27T19:10:35.814Z,5.68
2023-03-27T19:13:02.892Z,5.67
2023-03-27T19:15:30.102Z,5.62
2023-03-27T19:17:56.647Z,5.60
2023-03-27T19:20:23.456Z,5.57
2023-03-27T19:22:50.279Z,5.51
2023-03-27T19:25:17.131Z,5.46
2023-03-27T19:27:43.710Z,5.45
2023-03-27T19:30:12.834Z,5.32
2023-03-27T19:32:39.971Z,5.23
2023-03-27T19:35:07.250Z,5.33
2023-03-27T19:37:33.844Z,5.29
2023-03-27T19:40:00.306Z,5.33
2023-03-27T19:42:28.474Z,5.22
2023-03-27T19:44:55.530Z,5.19
2023-03-27T19:47:22.168Z,5.19
2023-03-27T19:49:48.567Z,5.16
2023-03-27T19:52:16.816Z,5.19
2023-03-27T19:54:43.264Z,5.02
2023-03-27T19:57:09.820Z,4.99
2023-03-27T19:59:36.293Z,4.95
2023-03-27T20:02:04.090Z,4.91
2023-03-27T20:04:30.975Z,4.73
2023-03-27T20:06:58.897Z,4.84
2023-03-27T20:09:25.521Z,4.89
2023-03-27T20:11:53.269Z,4.77
2023-03-27T20:14:20.016Z,4.82
2023-03-27T20:16:46.598Z,4.84
2023-03-27T20:19:15.743Z,4.78
2023-03-27T20:21:43.621Z,4.80
2023-03-27T20:24:11.954Z,4.70
2023-03-27T20:26:39.287Z,4.63
2023-03-27T20:29:12.165Z,4.62
2023-03-27T20:31:38.958Z,4.62
2023-03-27T20:34:06.220Z,4.52
2023-03-27T20:36:35.991Z,4.61
2023-03-27T20:39:07.231Z,4.19
2023-03-27T20:41:38.761Z,4.17
2023-03-27T20:44:15.296Z,4.11
2023-03-27T20:46:47.176Z,3.90
2023-03-27T20:49:37.542Z,3.86
2023-03-27T20:52:08.120Z,3.75
2023-03-27T20:54:34.625Z,3.80
2023-03-27T20:57:02.372Z,3.71
2023-03-27T20:59:29.717Z,3.48
2023-03-27T21:01:56.542Z,3.51
2023-03-27T21:04:25.602Z,3.48
2023-03-27T21:06:54.804Z,3.48
2023-03-27T21:09:25.494Z,3.46
2023-03-27T21:11:51.954Z,3.48
2023-03-27T21:14:18.382Z,3.44
2023-03-27T21:16:44.874Z,3.41
2023-03-27T21:19:11.749Z,3.42
2023-03-27T21:21:38.719Z,3.49
2023-03-27T21:24:05.679Z,3.34
2023-03-27T21:26:32.125Z,3.33
2023-03-27T21:28:58.573Z,3.25
2023-03-27T21:31:25.111Z,3.21
2023-03-27T21:33:51.615Z,3.17
2023-03-27T21:36:18.234Z,3.20
2023-03-27T21:38:44.699Z,3.16
2023-03-27T21:41:15.657Z,2.99
2023-03-27T21:43:42.162Z,2.96
2023-03-27T21:46:08.762Z,2.86
2023-03-27T21:48:35.368Z,2.99
2023-03-27T21:51:03.887Z,3.03
2023-03-27T21:53:30.455Z,3.02
2023-03-27T21:55:57.563Z,2.96
2023-03-27T21:58:24.751Z,2.97
2023-03-27T22:00:51.227Z,3.06
2023-03-27T22:03:20.524Z,3.08
2023-03-27T22:05:57.358Z,3.11
2023-03-27T22:08:27.768Z,3.12
2023-03-27T22:10:58.305Z,3.20
2023-03-27T22:13:24.764Z,3.18
2023-03-27T22:15:51.420Z,3.25
2023-03-27T22:18:17.917Z,3.28
2023-03-27T22:20:44.308Z,3.25
2023-03-27T22:23:10.710Z,3.14
2023-03-27T22:25:37.112Z,2.98
2023-03-27T22:28:03.511Z,2.86
2023-03-27T22:30:29.934Z,2.64
2023-03-27T22:32:56.483Z,2.64
2023-03-27T22:35:23.051Z,2.53
2023-03-27T22:37:49.486Z,2.49
2023-03-27T22:40:16.513Z,2.49
2023-03-27T22:42:42.981Z,2.43
2023-03-27T22:45:09.792Z,2.38
2023-03-27T22:47:36.340Z,2.27
2023-03-27T22:50:04.830Z,2.14
2023-03-27T22:52:31.265Z,2.12
2023-03-27T22:54:57.673Z,2.05
2023-03-27T22:57:24.050Z,2.18
2023-03-27T22:59:51.044Z,2.14
2023-03-27T23:02:17.489Z,2.16
2023-03-27T23:04:43.928Z,2.13
2023-03-27T23:07:10.679Z,2.05
2023-03-27T23:09:39.105Z,2.01
2023-03-27T23:12:05.824Z,1.99
2023-03-27T23:14:32.806Z,1.88
2023-03-27T23:17:03.313Z,1.86
2023-03-27T23:19:29.847Z,1.75
2023-03-27T23:21:56.243Z,1.63
2023-03-27T23:24:22.687Z,1.71
2023-03-27T23:26:49.092Z,1.74
2023-03-27T23:29:15.594Z,1.72
2023-03-27T23:31:42.054Z,1.74
2023-03-27T23:34:08.504Z,1.67
2023-03-27T23:36:34.963Z,1.63
2023-03-27T23:39:01.370Z,1.69
2023-03-27T23:41:29.298Z,1.48
2023-03-27T23:43:55.805Z,1.57
2023-03-27T23:46:22.386Z,1.36
2023-03-27T23:48:48.911Z,1.49
2023-03-27T23:51:16.550Z,1.45
2023-03-27T23:53:43.164Z,1.38
2023-03-27T23:56:10.074Z,1.45
2023-03-27T23:58:37.278Z,1.48
